sensor_id;sensor_type;location;lat;lon;timestamp;P1;durP1;ratioP1;P2;durP2;ratioP2
71955;SDS011;59829;50.562;6.258;2024-01-11T00:08:13;9.23;;;3.25;;
71955;SDS011;59829;50.562;6.258;2024-01-11T00:18:14;9.45;;;2.75;;
71955;SDS011;59829;50.562;6.258;2024-01-11T00:28:14;6.78;;;2.50;;
71955;SDS011;59829;50.562;6.258;2024-01-11T00:38:14;7.82;;;2.75;;
71955;SDS011;59829;50.562;6.258;2024-01-11T00:48:15;7.25;;;2.65;;
71955;SDS011;59829;50.562;6.258;2024-01-11T00:58:15;8.77;;;2.67;;
71955;SDS011;59829;50.562;6.258;2024-01-11T01:08:15;7.22;;;2.33;;
71955;SDS011;59829;50.562;6.258;2024-01-11T01:18:15;6.40;;;2.40;;
71955;SDS011;59829;50.562;6.258;2024-01-11T01:28:16;8.18;;;2.30;;
71955;SDS011;59829;50.562;6.258;2024-01-11T01:38:16;4.93;;;1.90;;
71955;SDS011;59829;50.562;6.258;2024-01-11T01:48:17;8.10;;;2.28;;
71955;SDS011;59829;50.562;6.258;2024-01-11T01:58:17;5.25;;;1.95;;
71955;SDS011;59829;50.562;6.258;2024-01-11T02:08:19;5.88;;;1.92;;
71955;SDS011;59829;50.562;6.258;2024-01-11T02:28:22;5.88;;;1.67;;
71955;SDS011;59829;50.562;6.258;2024-01-11T02:38:22;6.50;;;2.08;;
71955;SDS011;59829;50.562;6.258;2024-01-11T02:48:23;5.50;;;1.90;;
71955;SDS011;59829;50.562;6.258;2024-01-11T02:58:27;5.30;;;1.92;;
71955;SDS011;59829;50.562;6.258;2024-01-11T03:08:27;5.43;;;1.83;;
71955;SDS011;59829;50.562;6.258;2024-01-11T03:18:28;8.27;;;2.58;;
71955;SDS011;59829;50.562;6.258;2024-01-11T03:28:31;8.30;;;2.57;;
71955;SDS011;59829;50.562;6.258;2024-01-11T03:38:32;7.38;;;2.42;;
71955;SDS011;59829;50.562;6.258;2024-01-11T03:48:32;7.95;;;2.58;;
71955;SDS011;59829;50.562;6.258;2024-01-11T03:58:32;7.00;;;2.40;;
71955;SDS011;59829;50.562;6.258;2024-01-11T04:08:32;7.75;;;2.47;;
71955;SDS011;59829;50.562;6.258;2024-01-11T04:18:33;7.00;;;2.28;;
71955;SDS011;59829;50.562;6.258;2024-01-11T04:28:33;7.30;;;2.60;;
71955;SDS011;59829;50.562;6.258;2024-01-11T04:38:34;6.75;;;2.63;;
71955;SDS011;59829;50.562;6.258;2024-01-11T04:48:34;8.13;;;2.55;;
71955;SDS011;59829;50.562;6.258;2024-01-11T04:58:34;7.97;;;2.47;;
71955;SDS011;59829;50.562;6.258;2024-01-11T05:08:35;8.57;;;2.73;;
71955;SDS011;59829;50.562;6.258;2024-01-11T05:18:35;9.45;;;2.97;;
71955;SDS011;59829;50.562;6.258;2024-01-11T05:28:36;10.15;;;2.83;;
71955;SDS011;59829;50.562;6.258;2024-01-11T05:38:38;9.07;;;2.80;;
71955;SDS011;59829;50.562;6.258;2024-01-11T05:48:40;8.95;;;2.90;;
71955;SDS011;59829;50.562;6.258;2024-01-11T05:58:40;8.55;;;2.95;;
71955;SDS011;59829;50.562;6.258;2024-01-11T06:08:40;9.80;;;3.42;;
71955;SDS011;59829;50.562;6.258;2024-01-11T06:18:42;8.80;;;3.30;;
71955;SDS011;59829;50.562;6.258;2024-01-11T06:28:43;9.65;;;3.45;;
71955;SDS011;59829;50.562;6.258;2024-01-11T06:38:43;9.55;;;3.53;;
71955;SDS011;59829;50.562;6.258;2024-01-11T06:48:43;9.88;;;3.33;;
71955;SDS011;59829;50.562;6.258;2024-01-11T06:58:44;10.30;;;3.47;;
71955;SDS011;59829;50.562;6.258;2024-01-11T07:08:44;10.20;;;3.03;;
71955;SDS011;59829;50.562;6.258;2024-01-11T07:18:45;10.18;;;3.30;;
71955;SDS011;59829;50.562;6.258;2024-01-11T07:28:45;9.40;;;3.15;;
71955;SDS011;59829;50.562;6.258;2024-01-11T07:38:45;8.65;;;3.15;;
71955;SDS011;59829;50.562;6.258;2024-01-11T07:48:46;8.50;;;2.92;;
71955;SDS011;59829;50.562;6.258;2024-01-11T07:58:46;8.65;;;2.97;;
71955;SDS011;59829;50.562;6.258;2024-01-11T08:08:46;7.53;;;2.80;;
71955;SDS011;59829;50.562;6.258;2024-01-11T08:18:51;9.48;;;2.95;;
71955;SDS011;59829;50.562;6.258;2024-01-11T08:28:51;9.52;;;2.85;;
71955;SDS011;59829;50.562;6.258;2024-01-11T08:38:52;10.05;;;3.20;;
71955;SDS011;59829;50.562;6.258;2024-01-11T08:48:53;9.40;;;3.22;;
71955;SDS011;59829;50.562;6.258;2024-01-11T08:58:55;8.93;;;2.80;;
71955;SDS011;59829;50.562;6.258;2024-01-11T09:08:58;9.73;;;3.30;;
71955;SDS011;59829;50.562;6.258;2024-01-11T09:18:58;10.65;;;3.10;;
71955;SDS011;59829;50.562;6.258;2024-01-11T09:29:00;8.18;;;2.92;;
71955;SDS011;59829;50.562;6.258;2024-01-11T09:39:00;7.90;;;2.97;;
71955;SDS011;59829;50.562;6.258;2024-01-11T09:49:00;7.07;;;2.17;;
71955;SDS011;59829;50.562;6.258;2024-01-11T09:59:03;7.97;;;2.70;;
71955;SDS011;59829;50.562;6.258;2024-01-11T10:09:07;7.35;;;2.45;;
71955;SDS011;59829;50.562;6.258;2024-01-11T10:19:08;7.88;;;2.33;;
71955;SDS011;59829;50.562;6.258;2024-01-11T10:29:09;13.32;;;2.38;;
71955;SDS011;59829;50.562;6.258;2024-01-11T10:49:19;6.38;;;2.30;;
71955;SDS011;59829;50.562;6.258;2024-01-11T10:59:20;11.10;;;2.13;;
71955;SDS011;59829;50.562;6.258;2024-01-11T11:09:25;6.70;;;1.80;;
71955;SDS011;59829;50.562;6.258;2024-01-11T11:19:25;8.52;;;1.85;;
71955;SDS011;59829;50.562;6.258;2024-01-11T11:29:27;3.85;;;1.33;;
71955;SDS011;59829;50.562;6.258;2024-01-11T11:39:27;4.93;;;1.58;;
71955;SDS011;59829;50.562;6.258;2024-01-11T11:49:52;5.03;;;1.67;;
71955;SDS011;59829;50.562;6.258;2024-01-11T11:59:58;3.47;;;1.30;;
71955;SDS011;59829;50.562;6.258;2024-01-11T12:09:59;3.30;;;1.17;;
71955;SDS011;59829;50.562;6.258;2024-01-11T12:20:00;3.33;;;1.27;;
71955;SDS011;59829;50.562;6.258;2024-01-11T12:30:00;1.90;;;0.83;;
71955;SDS011;59829;50.562;6.258;2024-01-11T12:40:01;2.85;;;0.82;;
71955;SDS011;59829;50.562;6.258;2024-01-11T12:50:01;3.08;;;1.13;;
71955;SDS011;59829;50.562;6.258;2024-01-11T13:00:11;3.13;;;0.88;;
71955;SDS011;59829;50.562;6.258;2024-01-11T13:10:16;3.45;;;1.00;;
71955;SDS011;59829;50.562;6.258;2024-01-11T13:20:17;3.17;;;1.17;;
71955;SDS011;59829;50.562;6.258;2024-01-11T13:30:17;3.83;;;1.42;;
71955;SDS011;59829;50.562;6.258;2024-01-11T13:40:19;4.30;;;1.35;;
71955;SDS011;59829;50.562;6.258;2024-01-11T13:50:19;2.03;;;0.82;;
71955;SDS011;59829;50.562;6.258;2024-01-11T14:00:20;2.28;;;0.80;;
71955;SDS011;59829;50.562;6.258;2024-01-11T14:10:20;4.03;;;1.25;;
71955;SDS011;59829;50.562;6.258;2024-01-11T14:20:21;5.25;;;1.30;;
71955;SDS011;59829;50.562;6.258;2024-01-11T14:30:21;6.75;;;1.45;;
71955;SDS011;59829;50.562;6.258;2024-01-11T14:40:22;4.75;;;1.63;;
71955;SDS011;59829;50.562;6.258;2024-01-11T14:50:22;3.92;;;1.40;;
71955;SDS011;59829;50.562;6.258;2024-01-11T15:00:23;5.10;;;1.65;;
71955;SDS011;59829;50.562;6.258;2024-01-11T15:10:24;3.42;;;1.33;;
71955;SDS011;59829;50.562;6.258;2024-01-11T15:20:25;3.88;;;1.35;;
71955;SDS011;59829;50.562;6.258;2024-01-11T15:30:25;3.33;;;1.48;;
71955;SDS011;59829;50.562;6.258;2024-01-11T15:40:25;3.60;;;1.17;;
71955;SDS011;59829;50.562;6.258;2024-01-11T15:50:27;5.20;;;1.42;;
71955;SDS011;59829;50.562;6.258;2024-01-11T16:00:27;4.97;;;1.52;;
71955;SDS011;59829;50.562;6.258;2024-01-11T16:10:29;9.23;;;2.17;;
71955;SDS011;59829;50.562;6.258;2024-01-11T16:20:29;7.45;;;2.65;;
71955;SDS011;59829;50.562;6.258;2024-01-11T16:30:29;7.45;;;2.97;;
71955;SDS011;59829;50.562;6.258;2024-01-11T16:40:30;11.65;;;4.15;;
71955;SDS011;59829;50.562;6.258;2024-01-11T16:50:30;9.77;;;4.28;;
71955;SDS011;59829;50.562;6.258;2024-01-11T17:00:30;14.18;;;4.43;;
71955;SDS011;59829;50.562;6.258;2024-01-11T17:10:31;12.23;;;5.10;;
71955;SDS011;59829;50.562;6.258;2024-01-11T17:20:32;13.10;;;5.05;;
71955;SDS011;59829;50.562;6.258;2024-01-11T17:30:32;10.40;;;4.75;;
71955;SDS011;59829;50.562;6.258;2024-01-11T17:40:32;13.30;;;5.40;;
71955;SDS011;59829;50.562;6.258;2024-01-11T17:50:35;14.37;;;5.70;;
71955;SDS011;59829;50.562;6.258;2024-01-11T18:00:35;13.50;;;5.68;;
71955;SDS011;59829;50.562;6.258;2024-01-11T18:10:36;12.63;;;5.18;;
71955;SDS011;59829;50.562;6.258;2024-01-11T18:20:39;11.68;;;4.75;;
71955;SDS011;59829;50.562;6.258;2024-01-11T18:30:40;12.20;;;4.95;;
71955;SDS011;59829;50.562;6.258;2024-01-11T18:40:40;13.20;;;5.30;;
71955;SDS011;59829;50.562;6.258;2024-01-11T18:50:41;12.95;;;5.40;;
71955;SDS011;59829;50.562;6.258;2024-01-11T19:00:41;10.20;;;4.57;;
71955;SDS011;59829;50.562;6.258;2024-01-11T19:10:42;11.20;;;4.43;;
71955;SDS011;59829;50.562;6.258;2024-01-11T19:20:42;11.43;;;4.43;;
71955;SDS011;59829;50.562;6.258;2024-01-11T19:30:42;11.85;;;4.63;;
71955;SDS011;59829;50.562;6.258;2024-01-11T19:40:43;12.25;;;4.25;;
71955;SDS011;59829;50.562;6.258;2024-01-11T19:50:43;10.70;;;4.43;;
71955;SDS011;59829;50.562;6.258;2024-01-11T20:00:43;12.65;;;4.43;;
71955;SDS011;59829;50.562;6.258;2024-01-11T20:10:44;11.82;;;4.75;;
71955;SDS011;59829;50.562;6.258;2024-01-11T20:20:45;11.70;;;4.30;;
71955;SDS011;59829;50.562;6.258;2024-01-11T20:30:46;10.85;;;4.18;;
71955;SDS011;59829;50.562;6.258;2024-01-11T20:40:47;9.43;;;3.97;;
71955;SDS011;59829;50.562;6.258;2024-01-11T20:50:47;9.77;;;4.00;;
71955;SDS011;59829;50.562;6.258;2024-01-11T21:00:48;9.20;;;3.50;;
71955;SDS011;59829;50.562;6.258;2024-01-11T21:10:48;9.38;;;3.53;;
71955;SDS011;59829;50.562;6.258;2024-01-11T21:20:48;9.18;;;3.22;;
71955;SDS011;59829;50.562;6.258;2024-01-11T21:30:49;10.48;;;3.55;;
71955;SDS011;59829;50.562;6.258;2024-01-11T21:40:49;10.60;;;3.42;;
71955;SDS011;59829;50.562;6.258;2024-01-11T21:50:51;9.65;;;3.95;;
71955;SDS011;59829;50.562;6.258;2024-01-11T22:11:01;9.02;;;3.15;;
71955;SDS011;59829;50.562;6.258;2024-01-11T22:21:01;8.80;;;3.22;;
71955;SDS011;59829;50.562;6.258;2024-01-11T22:31:03;7.00;;;2.85;;
71955;SDS011;59829;50.562;6.258;2024-01-11T22:41:03;5.78;;;2.20;;
71955;SDS011;59829;50.562;6.258;2024-01-11T22:51:05;5.45;;;2.03;;
71955;SDS011;59829;50.562;6.258;2024-01-11T23:01:05;5.90;;;1.80;;
71955;SDS011;59829;50.562;6.258;2024-01-11T23:11:06;5.30;;;1.48;;
71955;SDS011;59829;50.562;6.258;2024-01-11T23:21:06;3.10;;;1.35;;
71955;SDS011;59829;50.562;6.258;2024-01-11T23:31:06;3.53;;;1.23;;
71955;SDS011;59829;50.562;6.258;2024-01-11T23:41:07;2.95;;;0.98;;
71955;SDS011;59829;50.562;6.258;2024-01-11T23:51:07;2.50;;;0.95;;
